createdAt,value
2019-05-21T00:00:31.845Z,15.70
2019-05-21T00:02:06.553Z,15.27
2019-05-21T00:03:41.514Z,16.17
2019-05-21T00:05:15.894Z,16.67
2019-05-21T00:06:50.851Z,17.07
2019-05-21T00:08:25.547Z,17.87
2019-05-21T00:10:00.800Z,16.90
2019-05-21T00:11:35.322Z,14.80
2019-05-21T00:13:10.247Z,14.20
2019-05-21T00:14:44.643Z,14.17
2019-05-21T00:16:19.839Z,14.00
2019-05-21T00:17:54.810Z,14.23
2019-05-21T00:19:29.730Z,13.63
2019-05-21T00:21:04.577Z,13.60
2019-05-21T00:22:39.600Z,13.77
2019-05-21T00:24:14.516Z,12.40
2019-05-21T00:25:49.752Z,11.57
2019-05-21T00:27:24.120Z,11.43
2019-05-21T00:29:34.974Z,12.33
2019-05-21T00:31:45.774Z,13.40
2019-05-21T00:33:56.893Z,12.77
2019-05-21T00:36:07.841Z,11.30
2019-05-21T00:38:18.214Z,13.07
2019-05-21T00:40:29.191Z,11.60
2019-05-21T00:42:03.543Z,11.00
2019-05-21T00:43:50.562Z,10.57
2019-05-21T00:45:25.534Z,10.73
2019-05-21T00:46:59.926Z,10.43
2019-05-21T00:48:34.857Z,12.43
2019-05-21T00:50:10.860Z,11.50
2019-05-21T00:51:45.846Z,11.77
2019-05-21T00:53:20.273Z,10.73
2019-05-21T00:54:55.705Z,10.10
2019-05-21T00:56:30.467Z,10.43
2019-05-21T00:58:05.741Z,9.97
2019-05-21T00:59:40.226Z,12.80
2019-05-21T01:01:15.484Z,11.33
2019-05-21T01:02:50.194Z,10.00
2019-05-21T01:04:25.436Z,10.10
2019-05-21T01:06:00.350Z,11.27
2019-05-21T01:07:35.743Z,12.87
2019-05-21T01:09:10.183Z,14.40
2019-05-21T01:10:45.121Z,17.00
2019-05-21T01:12:19.511Z,16.97
2019-05-21T01:13:54.455Z,21.03
2019-05-21T01:15:28.899Z,20.60
2019-05-21T01:17:04.059Z,21.20
2019-05-21T01:18:38.446Z,21.00
2019-05-21T01:20:13.441Z,19.97
2019-05-21T01:21:47.873Z,19.30
2019-05-21T01:23:23.151Z,18.47
2019-05-21T01:24:57.540Z,18.10
2019-05-21T01:26:32.535Z,16.60
2019-05-21T01:28:06.994Z,17.03
2019-05-21T01:29:41.928Z,16.97
2019-05-21T01:31:16.297Z,17.37
2019-05-21T01:32:51.260Z,16.93
2019-05-21T01:34:25.869Z,16.83
2019-05-21T01:36:00.827Z,16.33
2019-05-21T01:37:35.342Z,17.60
2019-05-21T01:39:10.264Z,17.80
2019-05-21T01:40:44.637Z,16.47
2019-05-21T01:42:19.557Z,15.97
2019-05-21T01:43:53.998Z,13.47
2019-05-21T01:45:29.197Z,13.77
2019-05-21T01:47:03.647Z,13.73
2019-05-21T01:48:38.587Z,15.17
2019-05-21T01:50:13.471Z,14.50
2019-05-21T01:51:48.457Z,13.23
2019-05-21T01:53:22.929Z,11.57
2019-05-21T01:54:57.867Z,13.70
2019-05-21T01:56:32.503Z,13.70
2019-05-21T01:58:07.785Z,13.17
2019-05-21T01:59:42.158Z,13.70
2019-05-21T02:01:17.085Z,10.90
2019-05-21T02:02:51.574Z,11.40
2019-05-21T02:04:26.534Z,10.10
2019-05-21T02:06:01.344Z,12.57
2019-05-21T02:07:36.990Z,11.70
2019-05-21T02:09:11.767Z,12.83
2019-05-21T02:10:47.639Z,11.80
2019-05-21T02:12:22.431Z,11.13
2019-05-21T02:13:57.948Z,11.53
2019-05-21T02:15:32.728Z,11.00
2019-05-21T02:17:08.277Z,11.50
2019-05-21T02:18:43.079Z,12.23
2019-05-21T02:20:18.767Z,10.07
2019-05-21T02:21:53.551Z,10.20
2019-05-21T02:23:29.060Z,9.87
2019-05-21T02:25:04.471Z,9.47
2019-05-21T02:26:40.468Z,10.13
2019-05-21T02:28:15.229Z,9.03
2019-05-21T02:29:51.124Z,9.83
2019-05-21T02:31:25.958Z,10.67
2019-05-21T02:33:01.728Z,9.57
2019-05-21T02:34:36.498Z,10.43
2019-05-21T02:36:12.643Z,10.07
2019-05-21T02:37:47.742Z,10.50
2019-05-21T02:39:23.245Z,12.40
2019-05-21T02:40:58.191Z,13.27
2019-05-21T02:42:33.886Z,13.13
2019-05-21T02:44:08.689Z,12.63
2019-05-21T02:45:44.625Z,15.10
2019-05-21T02:47:19.457Z,16.53
2019-05-21T02:48:55.008Z,18.07
2019-05-21T02:50:30.110Z,18.30
2019-05-21T02:52:06.172Z,15.83
2019-05-21T02:53:40.941Z,17.37
2019-05-21T02:55:16.546Z,17.53
2019-05-21T02:56:51.306Z,17.40
2019-05-21T02:58:26.818Z,19.33
2019-05-21T03:00:03.302Z,18.90
2019-05-21T03:01:44.476Z,16.00
2019-05-21T03:03:20.917Z,17.77
2019-05-21T03:04:56.654Z,16.47
2019-05-21T03:06:31.459Z,15.80
2019-05-21T03:08:07.021Z,13.77
2019-05-21T03:09:41.785Z,15.27
2019-05-21T03:11:17.534Z,16.37
2019-05-21T03:12:52.638Z,17.83
2019-05-21T03:14:27.619Z,18.80
2019-05-21T03:16:01.972Z,20.50
2019-05-21T03:17:36.949Z,19.70
2019-05-21T03:19:11.301Z,17.70
2019-05-21T03:20:46.228Z,17.50
2019-05-21T03:22:20.576Z,17.80
2019-05-21T03:23:55.473Z,19.77
2019-05-21T03:25:29.830Z,19.00
2019-05-21T03:27:04.901Z,19.30
2019-05-21T03:28:39.325Z,20.10
2019-05-21T03:30:14.978Z,20.33
2019-05-21T03:31:49.361Z,21.03
2019-05-21T03:33:24.358Z,19.17
2019-05-21T03:34:58.763Z,19.43
2019-05-21T03:36:34.422Z,19.43
2019-05-21T03:38:09.379Z,20.13
2019-05-21T03:39:44.370Z,19.93
2019-05-21T03:41:18.796Z,19.23
2019-05-21T03:42:53.903Z,19.40
2019-05-21T03:44:28.710Z,16.90
2019-05-21T03:46:03.721Z,19.07
2019-05-21T03:47:38.434Z,17.70
2019-05-21T03:49:13.502Z,17.97
2019-05-21T03:50:48.304Z,18.50
2019-05-21T03:52:23.625Z,18.27
2019-05-21T03:53:58.010Z,18.63
2019-05-21T03:55:32.934Z,17.80
2019-05-21T03:57:07.327Z,18.90
2019-05-21T03:58:42.237Z,19.00
2019-05-21T04:00:16.897Z,18.87
2019-05-21T04:01:51.917Z,17.40
2019-05-21T04:03:26.308Z,18.07
2019-05-21T04:05:01.214Z,18.00
2019-05-21T04:06:50.549Z,17.47
2019-05-21T04:08:12.213Z,17.83
2019-05-21T04:09:46.604Z,17.33
2019-05-21T04:11:21.530Z,18.10
2019-05-21T04:13:09.173Z,17.87
2019-05-21T04:14:48.242Z,17.83
2019-05-21T04:16:28.462Z,18.63
2019-05-21T04:18:07.425Z,17.93
2019-05-21T04:19:41.840Z,17.77
2019-05-21T04:21:17.002Z,18.13
2019-05-21T04:22:54.540Z,17.77
2019-05-21T04:24:29.442Z,17.53
2019-05-21T04:26:04.080Z,17.00
2019-05-21T04:27:39.317Z,17.40
2019-05-21T04:29:13.701Z,16.73
2019-05-21T04:30:48.701Z,17.53
2019-05-21T04:32:23.210Z,18.27
2019-05-21T04:33:58.141Z,18.50
2019-05-21T04:35:32.490Z,18.17
2019-05-21T04:37:11.403Z,18.27
2019-05-21T04:38:43.520Z,19.10
2019-05-21T04:40:18.785Z,18.93
2019-05-21T04:41:53.306Z,18.50
2019-05-21T04:43:28.584Z,18.07
2019-05-21T04:45:03.379Z,18.10
2019-05-21T04:46:38.349Z,17.10
2019-05-21T04:48:12.707Z,16.60
2019-05-21T04:49:47.925Z,15.83
2019-05-21T04:51:22.275Z,17.27
2019-05-21T04:52:57.418Z,16.30
2019-05-21T04:54:31.859Z,15.97
2019-05-21T04:56:06.864Z,16.00
2019-05-21T04:57:41.223Z,15.80
2019-05-21T04:59:16.156Z,16.53
2019-05-21T05:00:50.554Z,17.23
2019-05-21T05:02:25.738Z,16.83
2019-05-21T05:04:00.113Z,14.77
2019-05-21T05:05:35.062Z,16.07
2019-05-21T05:07:09.427Z,16.57
2019-05-21T05:08:44.569Z,16.07
2019-05-21T05:10:18.918Z,16.63
2019-05-21T05:11:54.097Z,16.60
2019-05-21T05:13:28.917Z,17.20
2019-05-21T05:15:03.913Z,17.37
2019-05-21T05:16:38.269Z,17.23
2019-05-21T05:18:13.200Z,16.13
2019-05-21T05:19:47.897Z,16.70
2019-05-21T05:21:22.800Z,15.87
2019-05-21T05:22:57.159Z,14.87
2019-05-21T05:24:32.443Z,14.93
2019-05-21T05:26:06.910Z,15.07
2019-05-21T05:27:41.882Z,14.73
2019-05-21T05:29:16.308Z,13.93
2019-05-21T05:30:51.241Z,14.10
2019-05-21T05:32:25.964Z,14.00
2019-05-21T05:34:00.956Z,12.70
2019-05-21T05:35:35.518Z,12.90
2019-05-21T05:37:10.458Z,13.37
2019-05-21T05:38:44.917Z,13.30
2019-05-21T05:40:20.179Z,12.97
2019-05-21T05:41:54.922Z,10.33
2019-05-21T05:43:29.921Z,10.73
2019-05-21T05:45:04.788Z,9.43
2019-05-21T05:46:39.822Z,8.60
2019-05-21T05:48:14.740Z,8.60
2019-05-21T05:49:52.355Z,8.40
2019-05-21T05:51:26.701Z,8.47
2019-05-21T05:53:01.645Z,8.50
2019-05-21T05:54:36.049Z,8.63
2019-05-21T05:56:10.945Z,7.33
2019-05-21T05:57:45.681Z,8.23
2019-05-21T05:59:20.619Z,7.83
2019-05-21T06:00:54.962Z,7.23
2019-05-21T06:02:29.973Z,7.30
2019-05-21T06:04:04.429Z,7.30
2019-05-21T06:05:39.361Z,7.30
2019-05-21T06:07:13.777Z,7.50
2019-05-21T06:08:49.342Z,7.83
2019-05-21T06:10:23.729Z,7.10
2019-05-21T06:11:58.637Z,7.17
2019-05-21T06:13:32.964Z,6.87
2019-05-21T06:15:08.439Z,5.63
2019-05-21T06:16:42.798Z,5.50
2019-05-21T06:18:17.706Z,5.20
2019-05-21T06:19:52.106Z,5.43
2019-05-21T06:21:27.301Z,5.00
2019-05-21T06:23:01.936Z,4.17
2019-05-21T06:24:36.921Z,4.50
2019-05-21T06:26:11.425Z,5.27
2019-05-21T06:27:46.617Z,4.10
2019-05-21T06:29:21.077Z,4.50
2019-05-21T06:30:56.049Z,4.63
2019-05-21T06:32:30.388Z,4.87
2019-05-21T06:34:05.368Z,4.77
2019-05-21T06:35:40.069Z,4.53
2019-05-21T06:37:14.986Z,4.50
2019-05-21T06:38:49.334Z,5.13
2019-05-21T06:40:24.343Z,4.20
2019-05-21T06:41:58.986Z,4.43
2019-05-21T06:43:34.458Z,4.43
2019-05-21T06:45:09.941Z,4.37
2019-05-21T06:46:44.850Z,4.00
2019-05-21T06:48:19.285Z,4.07
2019-05-21T06:49:54.202Z,3.97
2019-05-21T06:51:28.854Z,4.37
2019-05-21T06:53:03.805Z,4.67
2019-05-21T06:54:38.218Z,4.70
2019-05-21T06:56:13.117Z,4.70
2019-05-21T06:57:47.477Z,4.80
2019-05-21T06:59:22.402Z,4.50
2019-05-21T07:00:56.744Z,4.53
2019-05-21T07:02:31.692Z,4.70
2019-05-21T07:04:06.267Z,4.57
2019-05-21T07:05:57.495Z,4.10
2019-05-21T07:07:17.250Z,4.50
2019-05-21T07:08:52.450Z,4.57
2019-05-21T07:10:26.891Z,4.00
2019-05-21T07:12:02.119Z,4.33
2019-05-21T07:13:36.869Z,4.40
2019-05-21T07:15:11.994Z,4.47
2019-05-21T07:16:46.438Z,4.40
2019-05-21T07:18:21.380Z,3.60
2019-05-21T07:19:56.078Z,4.40
2019-05-21T07:21:31.041Z,3.57
2019-05-21T07:23:09.095Z,3.40
2019-05-21T07:24:44.104Z,3.70
2019-05-21T07:26:18.583Z,4.03
2019-05-21T07:27:53.621Z,3.73
2019-05-21T07:29:27.971Z,3.40
2019-05-21T07:31:03.646Z,3.60
2019-05-21T07:32:39.693Z,3.67
2019-05-21T07:34:15.246Z,3.17
2019-05-21T07:35:50.110Z,3.20
2019-05-21T07:37:28.458Z,3.20
2019-05-21T07:39:10.109Z,2.80
2019-05-21T07:41:10.295Z,3.00
2019-05-21T07:42:46.285Z,3.30
2019-05-21T07:44:20.765Z,3.13
2019-05-21T07:45:55.728Z,3.30
2019-05-21T07:47:30.769Z,2.90
2019-05-21T07:49:05.879Z,3.10
2019-05-21T07:50:40.259Z,2.90
2019-05-21T07:52:16.193Z,2.90
2019-05-21T07:53:50.861Z,2.93
2019-05-21T07:55:25.777Z,2.97
2019-05-21T07:57:00.124Z,3.10
2019-05-21T07:58:35.077Z,3.03
2019-05-21T08:00:11.373Z,2.70
2019-05-21T08:01:46.307Z,2.27
2019-05-21T08:03:20.755Z,2.60
2019-05-21T08:04:55.679Z,2.47
2019-05-21T08:06:30.109Z,2.43
2019-05-21T08:08:05.078Z,2.77
2019-05-21T08:09:40.042Z,2.40
2019-05-21T08:11:14.939Z,2.30
2019-05-21T08:12:49.705Z,2.27
2019-05-21T08:14:24.923Z,2.50
2019-05-21T08:15:59.268Z,2.50
2019-05-21T08:17:34.161Z,2.43
2019-05-21T08:19:08.797Z,2.50
2019-05-21T08:20:43.774Z,2.97
2019-05-21T08:22:18.499Z,2.77
2019-05-21T08:23:53.449Z,2.10
2019-05-21T08:25:27.811Z,2.07
2019-05-21T08:27:02.730Z,2.40
2019-05-21T08:28:37.070Z,2.20
2019-05-21T08:30:12.638Z,1.83
2019-05-21T08:31:47.173Z,1.83
2019-05-21T08:33:22.574Z,1.93
2019-05-21T08:34:57.627Z,2.00
2019-05-21T08:36:32.617Z,2.13
2019-05-21T08:38:07.100Z,1.80
2019-05-21T08:39:42.069Z,1.83
2019-05-21T08:41:16.439Z,1.97
2019-05-21T08:42:51.337Z,1.97
2019-05-21T08:44:26.015Z,2.33
2019-05-21T08:46:01.197Z,1.90
2019-05-21T08:47:35.890Z,1.87
2019-05-21T08:49:10.787Z,1.50
2019-05-21T08:50:45.500Z,1.70
2019-05-21T08:52:21.024Z,1.63
2019-05-21T08:53:55.868Z,1.90
2019-05-21T08:55:31.369Z,1.90
2019-05-21T08:57:06.160Z,1.73
2019-05-21T08:58:41.656Z,1.70
2019-05-21T09:00:18.896Z,1.83
2019-05-21T09:01:58.815Z,1.80
2019-05-21T09:03:30.979Z,1.60
2019-05-21T09:05:07.822Z,1.70
2019-05-21T09:06:42.674Z,1.73
2019-05-21T09:08:18.166Z,1.50
2019-05-21T09:09:52.685Z,1.87
2019-05-21T09:11:27.627Z,1.60
2019-05-21T09:13:01.981Z,1.93
2019-05-21T09:14:37.254Z,2.10
2019-05-21T09:16:12.465Z,2.10
2019-05-21T09:17:47.871Z,2.20
2019-05-21T09:19:22.820Z,1.80
2019-05-21T09:20:58.300Z,2.07
2019-05-21T09:22:33.593Z,1.70
2019-05-21T09:24:08.667Z,1.80
2019-05-21T09:25:43.023Z,1.87
2019-05-21T09:27:18.010Z,1.73
2019-05-21T09:28:52.354Z,1.77
2019-05-21T09:30:27.450Z,1.90
2019-05-21T09:32:01.828Z,2.17
2019-05-21T09:33:36.742Z,1.70
2019-05-21T09:35:11.262Z,2.27
2019-05-21T09:36:46.177Z,2.43
2019-05-21T09:38:21.417Z,1.83
2019-05-21T09:39:57.191Z,1.63
2019-05-21T09:41:32.029Z,1.60
2019-05-21T09:43:06.969Z,1.73
2019-05-21T09:44:41.345Z,1.90
2019-05-21T09:46:16.978Z,2.27
2019-05-21T09:47:51.777Z,1.93
2019-05-21T09:49:26.692Z,2.10
2019-05-21T09:51:01.124Z,1.70
2019-05-21T09:52:36.014Z,1.90
2019-05-21T09:54:10.393Z,2.03
2019-05-21T09:55:45.572Z,1.73
2019-05-21T09:57:26.546Z,1.60
2019-05-21T09:59:07.998Z,1.50
2019-05-21T10:01:04.622Z,1.73
2019-05-21T10:02:39.002Z,1.50
2019-05-21T10:04:14.086Z,1.70
2019-05-21T10:05:50.922Z,2.03
2019-05-21T10:07:38.919Z,1.67
2019-05-21T10:09:04.786Z,1.90
2019-05-21T10:10:40.014Z,1.70
2019-05-21T10:12:14.396Z,2.07
2019-05-21T10:13:49.550Z,2.00
2019-05-21T10:15:24.418Z,1.80
2019-05-21T10:16:59.321Z,1.90
2019-05-21T10:18:33.683Z,1.90
2019-05-21T10:20:08.852Z,1.90
2019-05-21T10:21:43.664Z,1.73
2019-05-21T10:23:18.905Z,1.87
2019-05-21T10:24:53.329Z,2.00
2019-05-21T10:26:28.372Z,2.30
2019-05-21T10:28:03.049Z,1.70
2019-05-21T10:29:37.969Z,1.90
2019-05-21T10:31:12.339Z,2.10
2019-05-21T10:32:47.320Z,2.23
2019-05-21T10:34:22.000Z,2.00
2019-05-21T10:35:56.894Z,1.90
2019-05-21T10:37:31.356Z,1.60
2019-05-21T10:39:07.462Z,1.83
2019-05-21T10:40:41.954Z,1.80
2019-05-21T10:42:17.160Z,1.73
2019-05-21T10:43:51.821Z,1.70
2019-05-21T10:45:26.880Z,1.60
2019-05-21T10:47:02.003Z,1.70
2019-05-21T10:48:37.563Z,1.67
2019-05-21T10:50:13.065Z,1.60
2019-05-21T10:51:48.572Z,1.60
2019-05-21T10:53:23.341Z,1.77
2019-05-21T10:54:59.128Z,1.77
2019-05-21T10:56:47.298Z,1.70
2019-05-21T10:58:11.458Z,1.57
2019-05-21T10:59:46.386Z,1.70
2019-05-21T11:01:43.272Z,1.70
2019-05-21T11:03:22.448Z,1.83
2019-05-21T11:05:22.375Z,1.60
2019-05-21T11:06:57.212Z,1.63
2019-05-21T11:08:32.732Z,1.50
2019-05-21T11:10:09.558Z,1.60
2019-05-21T11:11:45.206Z,1.50
2019-05-21T11:13:20.244Z,1.73
2019-05-21T11:14:55.764Z,1.50
2019-05-21T11:16:30.197Z,1.70
2019-05-21T11:18:10.909Z,1.30
2019-05-21T11:19:41.377Z,1.40
2019-05-21T11:21:16.633Z,1.50
2019-05-21T11:22:51.128Z,1.50
2019-05-21T11:24:26.027Z,1.40
2019-05-21T11:26:00.641Z,1.50
2019-05-21T11:27:35.621Z,1.60
2019-05-21T11:29:10.053Z,1.40
2019-05-21T11:30:45.270Z,1.40
2019-05-21T11:32:19.633Z,1.87
2019-05-21T11:33:54.602Z,1.30
2019-05-21T11:35:30.062Z,1.10
2019-05-21T11:37:05.779Z,1.10
2019-05-21T11:38:40.560Z,1.20
2019-05-21T11:40:16.469Z,1.20
2019-05-21T11:41:51.688Z,1.40
2019-05-21T11:43:26.881Z,1.20
2019-05-21T11:45:01.233Z,1.00
2019-05-21T11:46:36.402Z,1.00
2019-05-21T11:48:11.006Z,1.10
2019-05-21T11:49:45.934Z,1.20
2019-05-21T11:51:20.426Z,1.10
2019-05-21T11:52:55.380Z,1.10
2019-05-21T11:54:29.823Z,1.30
2019-05-21T11:56:04.887Z,1.40
2019-05-21T11:57:39.244Z,1.20
2019-05-21T11:59:14.173Z,1.30
2019-05-21T12:00:48.724Z,1.40
2019-05-21T12:02:23.633Z,1.23
2019-05-21T12:03:58.089Z,1.10
2019-05-21T12:05:33.253Z,1.30
2019-05-21T12:07:07.601Z,1.00
2019-05-21T12:08:55.628Z,1.27
2019-05-21T12:10:18.689Z,1.20
2019-05-21T12:11:53.613Z,1.30
2019-05-21T12:13:28.030Z,1.20
2019-05-21T12:15:02.966Z,1.03
2019-05-21T12:16:37.526Z,1.40
2019-05-21T12:18:12.501Z,1.10
2019-05-21T12:19:46.846Z,1.17
2019-05-21T12:21:21.815Z,1.27
2019-05-21T12:22:56.766Z,1.20
2019-05-21T12:24:31.708Z,1.00
2019-05-21T12:26:06.101Z,1.40
2019-05-21T12:27:41.001Z,1.30
2019-05-21T12:29:15.449Z,1.43
2019-05-21T12:30:50.400Z,1.40
2019-05-21T12:32:24.881Z,1.30
2019-05-21T12:34:00.180Z,1.10
2019-05-21T12:35:34.764Z,1.40
2019-05-21T12:37:10.085Z,1.20
2019-05-21T12:38:45.301Z,1.10
2019-05-21T12:40:21.147Z,1.33
2019-05-21T12:41:55.539Z,0.93
2019-05-21T12:43:32.361Z,1.17
2019-05-21T12:45:07.649Z,1.30
2019-05-21T12:46:42.804Z,1.20
2019-05-21T12:48:17.215Z,1.10
2019-05-21T12:49:52.562Z,1.50
2019-05-21T12:51:26.978Z,1.20
2019-05-21T12:53:01.907Z,1.50
2019-05-21T12:54:36.836Z,1.30
2019-05-21T12:56:11.977Z,1.40
2019-05-21T12:57:46.316Z,1.50
2019-05-21T12:59:21.219Z,1.40
2019-05-21T13:00:55.577Z,1.30
2019-05-21T13:02:30.498Z,1.40
2019-05-21T13:04:05.099Z,1.30
2019-05-21T13:05:40.091Z,1.60
2019-05-21T13:07:14.482Z,1.50
2019-05-21T13:08:49.517Z,1.43
2019-05-21T13:10:26.813Z,1.43
2019-05-21T13:12:00.814Z,1.40
2019-05-21T13:13:35.892Z,1.43
2019-05-21T13:15:11.096Z,1.50
2019-05-21T13:16:45.436Z,1.30
2019-05-21T13:18:20.611Z,1.47
2019-05-21T13:19:54.964Z,1.13
2019-05-21T13:21:29.872Z,1.60
2019-05-21T13:23:04.863Z,1.70
2019-05-21T13:24:40.029Z,1.40
2019-05-21T13:26:14.605Z,1.27
2019-05-21T13:27:49.724Z,1.20
2019-05-21T13:29:24.166Z,1.33
2019-05-21T13:30:59.416Z,1.40
2019-05-21T13:32:33.778Z,1.50
2019-05-21T13:34:09.011Z,0.97
2019-05-21T13:35:43.789Z,1.40
2019-05-21T13:37:19.016Z,1.40
2019-05-21T13:38:53.393Z,1.20
2019-05-21T13:40:28.437Z,1.33
2019-05-21T13:42:02.983Z,1.17
2019-05-21T13:43:38.234Z,1.30
2019-05-21T13:45:12.818Z,1.40
2019-05-21T13:46:47.709Z,1.20
2019-05-21T13:48:22.127Z,1.30
2019-05-21T13:49:57.034Z,1.20
2019-05-21T13:51:31.736Z,1.10
2019-05-21T13:53:06.696Z,1.40
2019-05-21T13:54:41.132Z,1.47
2019-05-21T13:56:16.766Z,1.10
2019-05-21T13:57:51.699Z,1.10
2019-05-21T13:59:27.342Z,1.10
2019-05-21T14:01:04.284Z,1.47
2019-05-21T14:02:39.921Z,1.27
2019-05-21T14:04:15.826Z,1.27
2019-05-21T14:05:51.174Z,1.10
2019-05-21T14:07:25.812Z,1.20
2019-05-21T14:09:01.179Z,1.00
2019-05-21T14:10:35.699Z,1.20
2019-05-21T14:12:10.766Z,1.27
2019-05-21T14:13:45.488Z,1.30
2019-05-21T14:15:20.369Z,1.20
2019-05-21T14:16:54.722Z,1.30
2019-05-21T14:18:30.034Z,1.23
2019-05-21T14:20:04.930Z,1.10
2019-05-21T14:21:39.837Z,1.20
2019-05-21T14:23:14.321Z,1.30
2019-05-21T14:24:49.287Z,1.17
2019-05-21T14:26:24.203Z,1.30
2019-05-21T14:27:59.299Z,1.40
2019-05-21T14:29:33.972Z,1.47
2019-05-21T14:31:08.945Z,1.57
2019-05-21T14:32:43.709Z,1.30
2019-05-21T14:34:18.597Z,1.57
2019-05-21T14:35:53.195Z,1.40
2019-05-21T14:37:28.383Z,1.50
2019-05-21T14:39:06.468Z,1.40
2019-05-21T14:40:41.378Z,1.33
2019-05-21T14:42:15.720Z,1.40
2019-05-21T14:43:50.633Z,1.50
2019-05-21T14:45:28.952Z,1.33
2019-05-21T14:47:01.855Z,1.60
2019-05-21T14:48:36.671Z,1.50
2019-05-21T14:50:12.114Z,1.70
2019-05-21T14:51:46.739Z,4.63
2019-05-21T14:53:21.925Z,7.77
2019-05-21T14:54:56.560Z,2.00
2019-05-21T14:56:32.058Z,1.73
2019-05-21T14:58:07.066Z,1.80
2019-05-21T14:59:42.344Z,8.23
2019-05-21T15:01:16.813Z,8.87
2019-05-21T15:02:51.726Z,2.63
2019-05-21T15:04:26.298Z,1.97
2019-05-21T15:06:01.614Z,1.77
2019-05-21T15:07:35.950Z,1.70
2019-05-21T15:09:10.854Z,1.80
2019-05-21T15:10:48.922Z,1.70
2019-05-21T15:12:21.935Z,1.67
2019-05-21T15:13:56.300Z,1.70
2019-05-21T15:15:31.372Z,1.50
2019-05-21T15:17:06.075Z,1.50
2019-05-21T15:18:41.470Z,1.50
2019-05-21T15:20:23.249Z,1.77
2019-05-21T15:21:58.253Z,2.03
2019-05-21T15:23:32.585Z,1.93
2019-05-21T15:25:08.090Z,1.60
2019-05-21T15:26:42.791Z,1.80
2019-05-21T15:28:17.707Z,1.63
2019-05-21T15:29:52.067Z,1.80
2019-05-21T15:31:27.004Z,1.47
2019-05-21T15:33:01.363Z,1.40
2019-05-21T15:34:36.379Z,1.50
2019-05-21T15:36:10.871Z,1.57
2019-05-21T15:37:45.778Z,1.53
2019-05-21T15:39:20.133Z,1.80
2019-05-21T15:41:09.603Z,1.90
2019-05-21T15:42:31.164Z,1.47
2019-05-21T15:44:06.325Z,1.60
2019-05-21T15:45:40.920Z,1.57
2019-05-21T15:47:16.239Z,1.70
2019-05-21T15:48:50.672Z,1.80
2019-05-21T15:50:25.651Z,1.70
2019-05-21T15:52:00.283Z,1.73
2019-05-21T15:53:35.280Z,1.83
2019-05-21T15:55:09.705Z,1.80
2019-05-21T15:56:44.631Z,1.80
2019-05-21T15:58:19.434Z,2.03
2019-05-21T15:59:54.770Z,1.80
2019-05-21T16:01:29.201Z,2.10
2019-05-21T16:03:04.137Z,2.80
2019-05-21T16:04:38.561Z,3.83
2019-05-21T16:06:13.851Z,5.00
2019-05-21T16:07:48.242Z,1.90
2019-05-21T16:09:23.283Z,2.50
2019-05-21T16:10:57.748Z,2.03
2019-05-21T16:12:32.674Z,2.20
2019-05-21T16:14:07.169Z,1.70
2019-05-21T16:15:42.059Z,1.90
2019-05-21T16:17:16.398Z,1.90
2019-05-21T16:18:51.330Z,1.80
2019-05-21T16:20:25.805Z,2.00
2019-05-21T16:22:00.705Z,2.17
2019-05-21T16:23:35.072Z,2.20
2019-05-21T16:25:10.521Z,1.87
2019-05-21T16:26:44.933Z,2.10
2019-05-21T16:28:20.092Z,1.70
2019-05-21T16:29:54.510Z,2.00
2019-05-21T16:31:29.841Z,2.20
2019-05-21T16:33:04.355Z,5.53
2019-05-21T16:34:39.558Z,6.10
2019-05-21T16:36:13.978Z,5.57
2019-05-21T16:37:49.511Z,3.87
2019-05-21T16:39:25.338Z,2.80
2019-05-21T16:41:00.743Z,3.20
2019-05-21T16:42:35.807Z,2.40
2019-05-21T16:44:11.210Z,2.73
2019-05-21T16:45:46.543Z,2.50
2019-05-21T16:47:21.831Z,2.30
2019-05-21T16:48:56.933Z,2.70
2019-05-21T16:50:32.246Z,2.40
2019-05-21T16:52:07.270Z,2.47
2019-05-21T16:53:42.643Z,2.90
2019-05-21T16:55:17.694Z,2.60
2019-05-21T16:56:52.933Z,2.40
2019-05-21T16:58:27.606Z,2.43
2019-05-21T17:00:06.387Z,2.10
2019-05-21T17:01:41.023Z,2.37
2019-05-21T17:03:16.015Z,3.70
2019-05-21T17:04:50.624Z,7.07
2019-05-21T17:06:25.523Z,6.70
2019-05-21T17:08:00.123Z,5.77
2019-05-21T17:09:35.303Z,4.00
2019-05-21T17:11:09.903Z,2.80
2019-05-21T17:12:45.067Z,3.63
2019-05-21T17:14:19.705Z,3.20
2019-05-21T17:15:54.604Z,2.70
2019-05-21T17:17:29.241Z,2.43
2019-05-21T17:19:04.318Z,2.70
2019-05-21T17:20:38.913Z,2.57
2019-05-21T17:22:13.875Z,2.40
2019-05-21T17:23:48.519Z,2.57
2019-05-21T17:25:23.433Z,2.33
2019-05-21T17:26:58.025Z,2.40
2019-05-21T17:28:33.185Z,2.30
2019-05-21T17:30:08.112Z,2.40
2019-05-21T17:31:43.117Z,1.73
2019-05-21T17:33:17.565Z,2.17
2019-05-21T17:34:52.726Z,2.30
2019-05-21T17:36:27.064Z,2.33
2019-05-21T17:38:01.997Z,2.20
2019-05-21T17:39:36.565Z,2.30
2019-05-21T17:41:11.811Z,2.17
2019-05-21T17:42:46.764Z,2.43
2019-05-21T17:44:24.805Z,2.03
2019-05-21T17:45:57.850Z,2.40
2019-05-21T17:47:32.846Z,2.40
2019-05-21T17:49:07.205Z,2.20
2019-05-21T17:50:42.249Z,2.50
2019-05-21T17:52:16.691Z,1.93
2019-05-21T17:53:51.584Z,2.37
2019-05-21T17:55:25.993Z,2.30
2019-05-21T17:57:03.753Z,2.30
2019-05-21T17:58:38.093Z,2.40
2019-05-21T18:00:13.609Z,2.00
2019-05-21T18:01:48.556Z,2.67
2019-05-21T18:03:23.620Z,2.60
2019-05-21T18:04:58.436Z,2.50
2019-05-21T18:06:33.838Z,2.70
2019-05-21T18:08:08.617Z,2.50
2019-05-21T18:09:43.622Z,2.40
2019-05-21T18:11:18.109Z,2.87
2019-05-21T18:12:53.072Z,2.80
2019-05-21T18:14:28.582Z,2.60
2019-05-21T18:16:04.127Z,2.60
2019-05-21T18:17:38.745Z,2.30
2019-05-21T18:19:15.082Z,2.50
2019-05-21T18:20:50.083Z,2.70
2019-05-21T18:22:26.443Z,2.73
2019-05-21T18:24:01.025Z,2.80
2019-05-21T18:25:36.184Z,2.13
2019-05-21T18:27:10.613Z,2.53
2019-05-21T18:28:45.937Z,2.77
2019-05-21T18:30:22.717Z,2.67
2019-05-21T18:31:57.682Z,3.03
2019-05-21T18:33:32.364Z,2.60
2019-05-21T18:35:08.114Z,3.27
2019-05-21T18:36:42.529Z,2.90
2019-05-21T18:38:17.454Z,2.60
2019-05-21T18:39:52.135Z,2.90
2019-05-21T18:41:27.347Z,2.40
2019-05-21T18:43:01.947Z,2.90
2019-05-21T18:44:36.910Z,2.90
2019-05-21T18:46:11.610Z,2.63
2019-05-21T18:47:46.585Z,2.93
2019-05-21T18:49:21.048Z,2.60
2019-05-21T18:50:55.974Z,2.80
2019-05-21T18:52:30.383Z,2.63
2019-05-21T18:54:05.785Z,2.80
2019-05-21T18:55:40.120Z,2.80
2019-05-21T18:57:15.375Z,3.37
2019-05-21T18:58:49.794Z,2.90
2019-05-21T19:00:24.958Z,3.30
2019-05-21T19:01:59.598Z,2.73
2019-05-21T19:03:35.035Z,3.23
2019-05-21T19:05:09.677Z,3.20
2019-05-21T19:06:44.637Z,2.80
2019-05-21T19:08:19.250Z,3.60
2019-05-21T19:09:54.290Z,3.30
2019-05-21T19:11:29.149Z,3.80
2019-05-21T19:13:04.857Z,3.50
2019-05-21T19:14:44.838Z,3.50
2019-05-21T19:16:15.835Z,3.83
2019-05-21T19:17:50.826Z,3.50
2019-05-21T19:19:32.416Z,3.67
2019-05-21T19:21:13.261Z,3.60
2019-05-21T19:22:52.347Z,3.60
2019-05-21T19:24:27.341Z,3.80
2019-05-21T19:26:01.738Z,3.17
2019-05-21T19:27:36.713Z,3.53
2019-05-21T19:29:11.410Z,4.27
2019-05-21T19:30:46.598Z,3.47
2019-05-21T19:32:21.226Z,4.03
2019-05-21T19:33:56.200Z,3.77
2019-05-21T19:35:33.072Z,3.60
2019-05-21T19:37:07.372Z,3.80
2019-05-21T19:38:41.748Z,3.90
2019-05-21T19:40:18.697Z,4.00
2019-05-21T19:41:53.574Z,4.20
2019-05-21T19:43:28.461Z,3.93
2019-05-21T19:45:03.314Z,4.10
2019-05-21T19:46:38.338Z,4.00
2019-05-21T19:48:12.996Z,4.07
2019-05-21T19:49:47.989Z,4.10
2019-05-21T19:51:22.640Z,3.97
2019-05-21T19:52:57.569Z,4.10
2019-05-21T19:54:32.210Z,4.13
2019-05-21T19:56:07.181Z,4.23
2019-05-21T19:57:42.682Z,4.70
2019-05-21T19:59:17.682Z,4.70
2019-05-21T20:00:53.800Z,4.53
2019-05-21T20:02:30.886Z,5.73
2019-05-21T20:04:05.478Z,7.23
2019-05-21T20:05:41.152Z,7.70
2019-05-21T20:07:17.254Z,6.40
2019-05-21T20:08:52.143Z,8.37
2019-05-21T20:10:26.533Z,9.47
2019-05-21T20:12:01.912Z,10.53
2019-05-21T20:13:36.277Z,11.93
2019-05-21T20:15:12.798Z,12.80
2019-05-21T20:16:47.506Z,13.70
2019-05-21T20:18:23.644Z,15.00
2019-05-21T20:19:59.040Z,15.13
2019-05-21T20:21:35.169Z,15.37
2019-05-21T20:23:10.498Z,15.13
2019-05-21T20:24:46.445Z,15.83
2019-05-21T20:26:23.397Z,16.90
2019-05-21T20:27:59.053Z,15.87
2019-05-21T20:29:34.426Z,15.53
2019-05-21T20:31:10.162Z,15.93
2019-05-21T20:32:44.834Z,16.47
2019-05-21T20:34:19.754Z,16.57
2019-05-21T20:35:55.730Z,15.73
2019-05-21T20:37:32.737Z,16.40
2019-05-21T20:39:09.286Z,16.07
2019-05-21T20:40:44.324Z,15.87
2019-05-21T20:42:21.378Z,14.97
2019-05-21T20:43:59.354Z,15.40
2019-05-21T20:45:35.501Z,14.77
2019-05-21T20:47:11.566Z,15.50
2019-05-21T20:48:47.159Z,15.30
2019-05-21T20:50:23.212Z,15.43
2019-05-21T20:51:57.900Z,14.70
2019-05-21T20:53:33.968Z,13.70
2019-05-21T20:55:09.486Z,15.17
2019-05-21T20:56:45.038Z,14.27
2019-05-21T20:58:19.624Z,14.50